Time;durP1;ratioP1;P1;durP2;ratioP2;P2;SDS_P1;SDS_P2;PMS_P1;PMS_P2;Temp;Humidity;BMP_temperature;BMP_pressure;BME280_temperature;BME280_humidity;BME280_pressure;Samples;Min_cycle;Max_cycle;Signal;HPM_P1;HPM_P2
2021/05/17 00:06:15;;;;;;;0.75;0.45;;;15.50;70.10;;;;;;20562086;28;20130;-76
2021/05/17 00:16:18;;;;;;;0.20;0.20;;;15.50;70.10;;;;;;20561910;28;20406;-75
2021/05/17 00:26:19;;;;;;;0.25;0.20;;;15.50;70.10;;;;;;20545563;28;20441;-74
2021/05/17 00:36:19;;;;;;;0.50;0.30;;;15.50;70.20;;;;;;20578267;28;20038;-74
2021/05/17 00:46:23;;;;;;;0.75;0.40;;;15.50;70.10;;;;;;20564479;28;20300;-74
2021/05/17 00:56:24;;;;;;;0.30;0.30;;;15.50;70.10;;;;;;20592251;28;20288;-75
2021/05/17 01:06:25;;;;;;;0.57;0.30;;;15.50;70.10;;;;;;20559409;28;20081;-76
2021/05/17 01:16:26;;;;;;;0.30;0.30;;;15.50;70.10;;;;;;20559032;28;20549;-74
2021/05/17 01:26:30;;;;;;;0.30;0.20;;;15.50;70.20;;;;;;20573665;28;20073;-75
2021/05/17 01:36:34;;;;;;;0.47;0.30;;;15.50;70.10;;;;;;20558503;28;20047;-74
2021/05/17 01:46:37;;;;;;;0.20;0.20;;;15.50;70.10;;;;;;20540457;28;20058;-75
2021/05/17 01:56:44;;;;;;;0.40;0.20;;;15.50;70.10;;;;;;20555921;28;20041;-74
2021/05/17 02:07:05;;;;;;;2.58;0.47;;;15.50;70.10;;;;;;20545316;28;20058;-76
2021/05/17 02:17:07;;;;;;;0.30;0.30;;;15.50;70.10;;;;;;20569911;28;20481;-75
2021/05/17 02:27:12;;;;;;;0.70;0.47;;;15.40;70.00;;;;;;20569531;28;20105;-75
2021/05/17 02:37:14;;;;;;;0.60;0.52;;;15.40;69.90;;;;;;20537022;28;20694;-76
2021/05/17 02:47:15;;;;;;;0.57;0.35;;;15.40;69.90;;;;;;20536167;28;20069;-75
2021/05/17 02:57:16;;;;;;;0.60;0.30;;;15.40;69.90;;;;;;20551271;28;20070;-74
2021/05/17 03:07:28;;;;;;;0.73;0.40;;;15.40;69.90;;;;;;20565508;28;20041;-75
2021/05/17 03:17:29;;;;;;;0.68;0.32;;;15.40;69.80;;;;;;20565128;28;20046;-74
2021/05/17 03:27:32;;;;;;;0.98;0.20;;;15.30;69.70;;;;;;20564949;28;20514;-75
2021/05/17 03:37:33;;;;;;;0.20;0.20;;;15.30;69.70;;;;;;20564106;28;20038;-74
2021/05/17 03:47:34;;;;;;;0.68;0.30;;;15.30;69.60;;;;;;20563329;28;20688;-74
2021/05/17 03:57:35;;;;;;;0.20;0.20;;;15.30;69.60;;;;;;20546831;28;20034;-75
2021/05/17 04:17:39;;;;;;;0.32;0.25;;;15.30;70.20;;;;;;20578155;28;20065;-75
2021/05/17 04:27:40;;;;;;;0.20;0.20;;;15.30;69.50;;;;;;20545118;28;20026;-74
2021/05/17 04:37:40;;;;;;;0.63;0.30;;;15.30;69.40;;;;;;20561096;28;20855;-75
2021/05/17 04:47:42;;;;;;;0.20;0.20;;;15.30;69.40;;;;;;20544491;28;20318;-75
2021/05/17 04:57:43;;;;;;;0.98;0.28;;;15.30;69.40;;;;;;20577241;28;20120;-75
2021/05/17 05:07:45;;;;;;;0.20;0.20;;;15.30;69.40;;;;;;20660724;28;20046;-76
2021/05/17 05:17:45;;;;;;;0.20;0.20;;;15.30;69.40;;;;;;20700036;28;20475;-75
2021/05/17 05:27:49;;;;;;;0.20;0.20;;;15.30;69.50;;;;;;20585339;28;20148;-75
2021/05/17 05:37:50;;;;;;;0.32;0.25;;;15.30;69.40;;;;;;20611159;28;20045;-75
2021/05/17 05:47:51;;;;;;;0.30;0.20;;;15.30;69.50;;;;;;20650747;28;20468;-74
2021/05/17 05:57:52;;;;;;;0.50;0.40;;;15.30;69.50;;;;;;20601724;28;20121;-73
2021/05/17 06:07:52;;;;;;;0.43;0.22;;;15.30;69.50;;;;;;20611520;28;20041;-74
2021/05/17 06:17:53;;;;;;;0.25;0.25;;;15.30;69.40;;;;;;20626846;28;20038;-74
2021/05/17 06:27:54;;;;;;;0.75;0.40;;;15.30;69.40;;;;;;20634503;28;20026;-75
2021/05/17 06:37:54;;;;;;;1.50;0.30;;;15.30;69.40;;;;;;20622179;28;20097;-74
2021/05/17 06:47:55;;;;;;;1.52;0.40;;;15.40;69.40;;;;;;20602904;28;20034;-72
2021/05/17 07:18:03;;;;;;;0.73;0.43;;;15.50;69.40;;;;;;20611039;28;20129;-71
2021/05/17 07:28:04;;;;;;;1.17;0.45;;;15.50;69.30;;;;;;20630249;28;20727;-72
2021/05/17 07:38:04;;;;;;;2.67;0.50;;;15.50;69.70;;;;;;20577198;28;20051;-74
2021/05/17 07:48:05;;;;;;;1.77;0.50;;;15.50;69.30;;;;;;20608971;28;20041;-74
2021/05/17 07:58:06;;;;;;;2.28;0.57;;;15.50;69.30;;;;;;20657906;28;20876;-72
2021/05/17 08:08:07;;;;;;;0.50;0.40;;;15.60;69.40;;;;;;20640911;28;20036;-71
2021/05/17 08:18:07;;;;;;;0.75;0.40;;;15.60;69.40;;;;;;20601575;28;20048;-72
2021/05/17 08:28:08;;;;;;;0.40;0.40;;;15.60;69.30;;;;;;20661642;28;20122;-73
2021/05/17 08:38:10;;;;;;;0.43;0.35;;;15.60;69.30;;;;;;20604846;28;20128;-71
2021/05/17 08:48:11;;;;;;;1.15;0.50;;;15.60;69.30;;;;;;20639467;28;20045;-72
2021/05/17 08:58:11;;;;;;;0.90;0.55;;;15.60;69.30;;;;;;21038139;23;20042;-71
2021/05/17 09:08:12;;;;;;;0.98;0.55;;;15.60;69.30;;;;;;20807752;28;20480;-71
2021/05/17 09:18:22;;;;;;;1.45;0.38;;;15.60;69.10;;;;;;20801786;28;20052;-71
2021/05/17 09:28:24;;;;;;;0.40;0.40;;;15.60;69.00;;;;;;20801234;28;20387;-71
2021/05/17 09:38:25;;;;;;;0.90;0.60;;;15.60;69.40;;;;;;20784441;28;20115;-71
2021/05/17 09:48:29;;;;;;;0.52;0.40;;;15.60;68.70;;;;;;20816218;28;20475;-70
2021/05/17 09:58:34;;;;;;;2.85;0.70;;;15.60;68.70;;;;;;20799264;28;20041;-73
2021/05/17 10:08:36;;;;;;;0.40;0.40;;;15.60;68.80;;;;;;20788188;28;20025;-77
2021/05/17 10:18:37;;;;;;;1.05;0.43;;;15.60;69.00;;;;;;20781366;28;20587;-73
2021/05/17 10:28:39;;;;;;;1.17;0.90;;;15.60;69.20;;;;;;20774174;28;20034;-74
2021/05/17 10:38:46;;;;;;;1.98;1.17;;;15.60;69.50;;;;;;20801801;28;20041;-77
2021/05/17 10:48:46;;;;;;;4.65;1.50;;;15.60;69.80;;;;;;20800643;28;20132;-78
2021/05/17 11:09:15;;;;;;;2.22;1.27;;;15.60;70.30;;;;;;20826672;28;20491;-75
2021/05/17 11:19:19;;;;;;;2.78;1.45;;;15.60;69.60;;;;;;20775948;28;20037;-74
2021/05/17 11:29:33;;;;;;;0.80;0.55;;;15.60;69.50;;;;;;20790846;28;20045;-75
2021/05/17 11:39:34;;;;;;;1.00;0.60;;;15.60;70.10;;;;;;20778661;28;20384;-73
2021/05/17 11:49:36;;;;;;;0.80;0.77;;;15.70;69.60;;;;;;20751990;28;20120;-75
2021/05/17 11:59:37;;;;;;;1.35;0.80;;;15.70;69.50;;;;;;20789968;28;20049;-74
2021/05/17 12:09:48;;;;;;;1.88;0.75;;;15.70;69.50;;;;;;20731352;28;20468;-73
2021/05/17 12:19:53;;;;;;;1.15;0.80;;;15.70;69.40;;;;;;20751037;28;20418;-73
2021/05/17 12:30:03;;;;;;;1.50;0.77;;;15.80;69.40;;;;;;20785931;28;20124;-73
2021/05/17 12:40:10;;;;;;;1.33;0.88;;;15.80;69.30;;;;;;20805543;28;20037;-74
2021/05/17 12:50:20;;;;;;;1.10;0.80;;;15.80;69.20;;;;;;20802356;28;20030;-73
2021/05/17 13:00:40;;;;;;;0.80;0.60;;;15.80;69.10;;;;;;20742865;28;20124;-74
2021/05/17 13:10:57;;;;;;;1.40;0.85;;;15.80;69.30;;;;;;20787562;28;20490;-80
2021/05/17 13:21:11;;;;;;;0.73;0.52;;;15.80;69.60;;;;;;20802682;28;20392;-79
2021/05/17 13:31:13;;;;;;;1.77;0.65;;;15.90;69.60;;;;;;20800626;28;20030;-78
2021/05/17 13:41:15;;;;;;;2.88;0.82;;;16.00;69.90;;;;;;20757975;28;20054;-78
2021/05/17 13:51:17;;;;;;;3.00;0.60;;;16.30;70.30;;;;;;20774729;28;20041;-79
2021/05/17 14:01:18;;;;;;;1.50;0.80;;;16.30;70.40;;;;;;20775265;28;20132;-81
2021/05/17 14:11:19;;;;;;;1.33;0.50;;;16.40;70.50;;;;;;20746194;28;20065;-78
2021/05/17 14:21:20;;;;;;;3.25;0.65;;;16.40;70.40;;;;;;20790772;28;20400;-78
2021/05/17 14:31:21;;;;;;;0.95;0.50;;;16.50;70.50;;;;;;20788207;28;20037;-78
2021/05/17 14:41:22;;;;;;;0.93;0.43;;;16.50;70.20;;;;;;20801689;28;20049;-76
2021/05/17 14:51:23;;;;;;;5.97;1.15;;;16.60;70.00;;;;;;20796147;28;20693;-79
2021/05/17 15:01:24;;;;;;;3.25;0.93;;;16.70;69.30;;;;;;20797850;28;20187;-77
2021/05/17 15:11:25;;;;;;;5.97;0.50;;;16.90;69.30;;;;;;20813116;28;20124;-79
2021/05/17 15:21:27;;;;;;;9.02;0.60;;;17.00;68.90;;;;;;20802844;28;20052;-76
2021/05/17 15:31:37;;;;;;;3.08;0.52;;;16.80;68.00;;;;;;21162701;27;20365;-76
2021/05/17 15:41:38;;;;;;;0.73;0.30;;;16.70;67.70;;;;;;21142696;28;20056;-75
2021/05/17 15:51:39;;;;;;;2.60;0.50;;;16.70;67.30;;;;;;21129994;28;20096;-73
2021/05/17 16:01:39;;;;;;;0.45;0.30;;;16.90;67.00;;;;;;21141281;28;20035;-75
2021/05/17 16:11:42;;;;;;;1.57;0.50;;;17.00;66.90;;;;;;21123907;28;20039;-76
2021/05/17 16:21:44;;;;;;;1.65;0.50;;;17.10;67.00;;;;;;21143835;28;20619;-79
2021/05/17 16:31:48;;;;;;;3.67;0.52;;;17.00;67.10;;;;;;21115873;28;20142;-73
2021/05/17 16:41:49;;;;;;;2.13;0.65;;;17.00;67.50;;;;;;21086303;28;20032;-70
2021/05/17 16:51:50;;;;;;;1.50;0.32;;;17.00;67.80;;;;;;21081694;28;20024;-76
2021/05/17 17:01:53;;;;;;;1.65;0.40;;;16.90;67.70;;;;;;21058905;28;20047;-73
2021/05/17 17:11:56;;;;;;;0.88;0.40;;;17.00;67.70;;;;;;21058676;28;20060;-73
2021/05/17 17:21:57;;;;;;;0.55;0.40;;;17.00;67.50;;;;;;21057717;28;20533;-73
2021/05/17 17:31:58;;;;;;;0.63;0.45;;;17.00;67.30;;;;;;21042488;28;20064;-73
2021/05/17 17:41:59;;;;;;;1.00;0.28;;;17.00;67.20;;;;;;21060084;28;20070;-73
2021/05/17 17:51:59;;;;;;;1.43;0.40;;;17.10;67.30;;;;;;21043037;28;20401;-74
2021/05/17 18:02:01;;;;;;;1.15;0.22;;;17.00;67.20;;;;;;21076125;28;20301;-73
2021/05/17 18:12:04;;;;;;;1.23;0.30;;;17.10;67.50;;;;;;21058539;28;20549;-72
2021/05/17 18:22:04;;;;;;;0.38;0.25;;;16.90;67.50;;;;;;21057958;28;20050;-74
2021/05/17 18:32:12;;;;;;;0.40;0.30;;;16.80;67.70;;;;;;21070836;28;20028;-74
2021/05/17 18:42:13;;;;;;;0.13;0.10;;;16.70;67.80;;;;;;21040314;28;20294;-76
2021/05/17 18:52:14;;;;;;;0.43;0.30;;;16.70;68.00;;;;;;21054493;28;20050;-74
2021/05/17 19:02:14;;;;;;;0.83;0.40;;;16.60;68.00;;;;;;21053116;28;20078;-73
2021/05/17 19:12:15;;;;;;;0.57;0.30;;;16.50;68.10;;;;;;21053290;28;20290;-74
2021/05/17 19:22:17;;;;;;;0.30;0.23;;;16.50;68.10;;;;;;21055247;28;20620;-73
2021/05/17 19:32:24;;;;;;;1.88;0.40;;;16.50;68.10;;;;;;21071761;28;20270;-75
2021/05/17 19:42:25;;;;;;;0.45;0.25;;;16.40;68.20;;;;;;21053154;28;20093;-74
2021/05/17 19:52:27;;;;;;;1.50;0.30;;;16.40;68.20;;;;;;21069165;28;20127;-74
2021/05/17 20:02:28;;;;;;;0.25;0.20;;;16.40;68.30;;;;;;21067626;28;20028;-74
2021/05/17 20:12:29;;;;;;;1.30;0.38;;;16.40;68.40;;;;;;21057888;28;20756;-73
2021/05/17 20:22:29;;;;;;;0.20;0.20;;;16.30;68.30;;;;;;21082656;28;20032;-76
2021/05/17 20:32:33;;;;;;;0.40;0.35;;;16.30;68.40;;;;;;21065174;28;20039;-75
2021/05/17 20:42:34;;;;;;;0.28;0.28;;;16.30;68.40;;;;;;21057196;28;20032;-74
2021/05/17 20:52:34;;;;;;;0.75;0.30;;;16.30;68.50;;;;;;21052520;28;20374;-73
2021/05/17 21:02:42;;;;;;;0.30;0.20;;;16.30;68.50;;;;;;21079483;28;20474;-75
2021/05/17 21:12:42;;;;;;;0.30;0.30;;;16.30;68.50;;;;;;21062064;28;20031;-73
2021/05/17 21:22:43;;;;;;;3.40;0.30;;;16.30;68.50;;;;;;21077670;28;20028;-73
2021/05/17 21:32:45;;;;;;;0.50;0.40;;;16.30;68.60;;;;;;21043041;28;20038;-74
2021/05/17 21:42:46;;;;;;;0.95;0.30;;;16.30;68.60;;;;;;21042108;28;20369;-76
2021/05/17 21:52:47;;;;;;;0.45;0.30;;;16.20;68.50;;;;;;21058789;28;20044;-74
2021/05/17 22:02:47;;;;;;;0.40;0.40;;;16.20;68.50;;;;;;21042930;28;20044;-74
2021/05/17 22:12:48;;;;;;;0.20;0.20;;;16.20;68.50;;;;;;21058891;28;20048;-73
2021/05/17 22:22:48;;;;;;;2.33;0.40;;;16.20;68.50;;;;;;21057894;28;20385;-73
2021/05/17 22:32:49;;;;;;;0.38;0.22;;;16.20;68.50;;;;;;21073187;28;20484;-73
2021/05/17 22:42:50;;;;;;;0.52;0.25;;;16.20;68.50;;;;;;21055862;28;20553;-74
2021/05/17 22:52:51;;;;;;;0.30;0.22;;;16.10;68.40;;;;;;21055803;28;20032;-74
2021/05/17 23:02:51;;;;;;;0.30;0.30;;;16.20;68.40;;;;;;21055334;28;20036;-74
2021/05/17 23:12:52;;;;;;;0.77;0.30;;;16.20;68.40;;;;;;21037572;28;20127;-73
2021/05/17 23:23:00;;;;;;;0.30;0.25;;;16.10;68.40;;;;;;21053713;28;20305;-73
2021/05/17 23:33:01;;;;;;;1.75;0.40;;;16.10;68.90;;;;;;21070770;28;20032;-74
2021/05/17 23:43:01;;;;;;;0.22;0.22;;;16.10;68.30;;;;;;21053277;28;20044;-74
2021/05/17 23:53:02;;;;;;;0.40;0.40;;;16.10;68.30;;;;;;21069577;28;20032;-73
